createdAt,value
2024-05-09T00:00:18.476Z,22.63
2024-05-09T00:01:33.581Z,22.63
2024-05-09T00:02:40.998Z,22.63
2024-05-09T00:03:48.382Z,22.63
2024-05-09T00:04:55.905Z,22.63
2024-05-09T00:06:03.557Z,22.63
2024-05-09T00:07:11.045Z,22.63
2024-05-09T00:08:18.480Z,22.63
2024-05-09T00:09:25.905Z,22.63
2024-05-09T00:10:37.136Z,22.63
2024-05-09T00:11:46.256Z,22.63
2024-05-09T00:12:53.660Z,22.63
2024-05-09T00:14:01.125Z,22.63
2024-05-09T00:15:08.525Z,22.63
2024-05-09T00:16:15.879Z,22.63
2024-05-09T00:17:23.421Z,22.63
2024-05-09T00:18:31.000Z,22.63
2024-05-09T00:19:38.625Z,22.63
2024-05-09T00:20:46.052Z,22.63
2024-05-09T00:21:53.453Z,22.63
2024-05-09T00:23:00.878Z,22.63
2024-05-09T00:24:08.242Z,22.63
2024-05-09T00:25:15.652Z,22.63
2024-05-09T00:26:23.200Z,22.63
2024-05-09T00:27:30.620Z,22.63
2024-05-09T00:28:38.009Z,22.63
2024-05-09T00:29:45.381Z,22.56
2024-05-09T00:30:52.759Z,22.63
2024-05-09T00:32:00.271Z,22.63
2024-05-09T00:33:09.275Z,22.56
2024-05-09T00:34:18.000Z,22.56
2024-05-09T00:35:25.496Z,22.63
2024-05-09T00:36:32.922Z,22.56
2024-05-09T00:37:40.295Z,22.56
2024-05-09T00:38:47.724Z,22.56
2024-05-09T00:39:55.193Z,22.56
2024-05-09T00:41:02.622Z,22.56
2024-05-09T00:42:10.020Z,22.56
2024-05-09T00:43:17.384Z,22.56
2024-05-09T00:44:24.919Z,22.56
2024-05-09T00:45:32.343Z,22.56
2024-05-09T00:46:39.689Z,22.56
2024-05-09T00:47:47.298Z,22.56
2024-05-09T00:48:54.863Z,22.56
2024-05-09T00:50:03.148Z,22.56
2024-05-09T00:51:11.598Z,22.56
2024-05-09T00:52:19.043Z,22.56
2024-05-09T00:53:26.443Z,22.56
2024-05-09T00:54:33.879Z,22.56
2024-05-09T00:55:41.240Z,22.56
2024-05-09T00:56:48.588Z,22.56
2024-05-09T00:57:55.935Z,22.56
2024-05-09T00:59:03.329Z,22.56
2024-05-09T01:00:22.380Z,22.56
2024-05-09T01:01:37.974Z,22.56
2024-05-09T01:02:45.537Z,22.56
2024-05-09T01:03:53.106Z,22.56
2024-05-09T01:05:00.739Z,22.56
2024-05-09T01:06:08.237Z,22.56
2024-05-09T01:07:15.595Z,22.56
2024-05-09T01:08:23.001Z,22.56
2024-05-09T01:09:30.465Z,22.56
2024-05-09T01:10:37.964Z,22.56
2024-05-09T01:11:45.409Z,22.56
2024-05-09T01:12:52.797Z,22.56
2024-05-09T01:14:00.204Z,22.56
2024-05-09T01:15:07.604Z,22.56
2024-05-09T01:16:14.982Z,22.56
2024-05-09T01:17:22.476Z,22.50
2024-05-09T01:18:30.004Z,22.50
2024-05-09T01:19:37.479Z,22.50
2024-05-09T01:20:45.631Z,22.56
2024-05-09T01:21:53.144Z,22.50
2024-05-09T01:23:00.560Z,22.50
2024-05-09T01:24:07.970Z,22.50
2024-05-09T01:25:15.315Z,22.50
2024-05-09T01:26:22.814Z,22.50
2024-05-09T01:27:30.253Z,22.50
2024-05-09T01:28:37.719Z,22.50
2024-05-09T01:29:45.077Z,22.50
2024-05-09T01:30:52.456Z,22.50
2024-05-09T01:31:59.949Z,22.50
2024-05-09T01:33:09.427Z,22.50
2024-05-09T01:34:18.452Z,22.50
2024-05-09T01:35:25.891Z,22.50
2024-05-09T01:36:33.276Z,22.50
2024-05-09T01:37:40.631Z,22.50
2024-05-09T01:38:48.056Z,22.50
2024-05-09T01:39:55.445Z,22.50
2024-05-09T01:41:02.887Z,22.50
2024-05-09T01:42:10.319Z,22.50
2024-05-09T01:43:17.715Z,22.50
2024-05-09T01:44:25.162Z,22.50
2024-05-09T01:45:32.581Z,22.44
2024-05-09T01:46:39.955Z,22.50
2024-05-09T01:47:47.605Z,22.50
2024-05-09T01:48:55.245Z,22.50
2024-05-09T01:50:03.339Z,22.44
2024-05-09T01:51:11.118Z,22.50
2024-05-09T01:52:18.702Z,22.44
2024-05-09T01:53:26.077Z,22.44
2024-05-09T01:54:33.674Z,22.44
2024-05-09T01:55:41.063Z,22.44
2024-05-09T01:56:48.442Z,22.44
2024-05-09T01:57:55.811Z,22.44
2024-05-09T01:59:03.189Z,22.44
2024-05-09T02:00:10.636Z,22.44
2024-05-09T02:01:18.076Z,22.44
2024-05-09T02:02:25.531Z,22.44
2024-05-09T02:03:33.052Z,22.44
2024-05-09T02:04:40.612Z,22.44
2024-05-09T02:05:48.413Z,22.44
2024-05-09T02:06:55.984Z,22.44
2024-05-09T02:08:03.488Z,22.44
2024-05-09T02:09:10.888Z,22.44
2024-05-09T02:10:23.526Z,22.44
2024-05-09T02:11:37.656Z,22.44
2024-05-09T02:12:45.154Z,22.44
2024-05-09T02:13:52.532Z,22.44
2024-05-09T02:14:59.948Z,22.44
2024-05-09T02:16:07.315Z,22.44
2024-05-09T02:17:14.804Z,22.44
2024-05-09T02:18:22.494Z,22.44
2024-05-09T02:19:30.020Z,22.44
2024-05-09T02:20:37.454Z,22.44
2024-05-09T02:21:44.859Z,22.44
2024-05-09T02:22:52.241Z,22.44
2024-05-09T02:23:59.681Z,22.44
2024-05-09T02:25:07.049Z,22.44
2024-05-09T02:26:14.515Z,22.38
2024-05-09T02:27:21.879Z,22.38
2024-05-09T02:28:29.245Z,22.38
2024-05-09T02:29:36.645Z,22.38
2024-05-09T02:30:44.004Z,22.44
2024-05-09T02:31:51.476Z,22.44
2024-05-09T02:32:59.065Z,22.44
2024-05-09T02:34:06.620Z,22.44
2024-05-09T02:35:14.208Z,22.44
2024-05-09T02:36:21.636Z,22.38
2024-05-09T02:37:29.021Z,22.44
2024-05-09T02:38:36.511Z,22.44
2024-05-09T02:39:43.957Z,22.38
2024-05-09T02:40:51.427Z,22.38
2024-05-09T02:41:58.814Z,22.38
2024-05-09T02:43:06.333Z,22.38
2024-05-09T02:44:13.918Z,22.38
2024-05-09T02:45:21.308Z,22.38
2024-05-09T02:46:28.682Z,22.38
2024-05-09T02:47:36.179Z,22.38
2024-05-09T02:48:43.686Z,22.38
2024-05-09T02:49:51.102Z,22.38
2024-05-09T02:50:58.725Z,22.38
2024-05-09T02:52:06.103Z,22.38
2024-05-09T02:53:14.180Z,22.38
2024-05-09T02:54:21.885Z,22.38
2024-05-09T02:55:29.277Z,22.38
2024-05-09T02:56:36.715Z,22.38
2024-05-09T02:57:44.233Z,22.38
2024-05-09T02:58:51.642Z,22.38
2024-05-09T02:59:59.038Z,22.38
2024-05-09T03:01:06.534Z,22.38
2024-05-09T03:02:14.066Z,22.38
2024-05-09T03:03:21.904Z,22.38
2024-05-09T03:04:29.546Z,22.38
2024-05-09T03:05:37.312Z,22.38
2024-05-09T03:06:44.873Z,22.38
2024-05-09T03:07:52.301Z,22.38
2024-05-09T03:08:59.739Z,22.38
2024-05-09T03:10:14.556Z,22.38
2024-05-09T03:11:25.982Z,22.38
2024-05-09T03:12:35.116Z,22.38
2024-05-09T03:13:43.947Z,22.38
2024-05-09T03:14:51.310Z,22.38
2024-05-09T03:15:58.708Z,22.38
2024-05-09T03:17:06.089Z,22.38
2024-05-09T03:18:13.913Z,22.38
2024-05-09T03:19:21.754Z,22.38
2024-05-09T03:20:34.103Z,22.38
2024-05-09T03:21:43.237Z,22.38
2024-05-09T03:22:52.704Z,22.38
2024-05-09T03:24:01.394Z,22.38
2024-05-09T03:25:08.779Z,22.38
2024-05-09T03:26:16.248Z,22.38
2024-05-09T03:27:23.689Z,22.38
2024-05-09T03:28:31.208Z,22.38
2024-05-09T03:29:38.568Z,22.38
2024-05-09T03:30:45.987Z,22.38
2024-05-09T03:31:53.423Z,22.38
2024-05-09T03:33:00.974Z,22.38
2024-05-09T03:34:08.515Z,22.38
2024-05-09T03:35:15.963Z,22.38
2024-05-09T03:36:23.358Z,22.38
2024-05-09T03:37:30.774Z,22.38
2024-05-09T03:38:38.203Z,22.38
2024-05-09T03:39:45.598Z,22.38
2024-05-09T03:40:52.999Z,22.38
2024-05-09T03:42:00.403Z,22.38
2024-05-09T03:43:07.772Z,22.38
2024-05-09T03:44:15.319Z,22.31
2024-05-09T03:45:22.701Z,22.38
2024-05-09T03:46:30.080Z,22.31
2024-05-09T03:47:37.565Z,22.38
2024-05-09T03:48:45.060Z,22.31
2024-05-09T03:49:52.551Z,22.31
2024-05-09T03:50:59.950Z,22.38
2024-05-09T03:52:07.634Z,22.31
2024-05-09T03:53:15.142Z,22.31
2024-05-09T03:54:22.591Z,22.31
2024-05-09T03:55:30.202Z,22.31
2024-05-09T03:56:37.592Z,22.31
2024-05-09T03:57:44.965Z,22.31
2024-05-09T03:58:52.384Z,22.31
2024-05-09T03:59:59.796Z,22.31
2024-05-09T04:01:07.206Z,22.31
2024-05-09T04:02:14.637Z,22.31
2024-05-09T04:03:22.229Z,22.31
2024-05-09T04:04:29.883Z,22.31
2024-05-09T04:05:37.326Z,22.38
2024-05-09T04:06:44.714Z,22.38
2024-05-09T04:07:52.109Z,22.38
2024-05-09T04:08:59.477Z,22.38
2024-05-09T04:10:09.020Z,22.38
2024-05-09T04:11:18.605Z,22.38
2024-05-09T04:12:26.143Z,22.38
2024-05-09T04:13:33.551Z,22.44
2024-05-09T04:14:40.939Z,22.31
2024-05-09T04:15:48.378Z,22.00
2024-05-09T04:16:55.808Z,21.69
2024-05-09T04:18:03.395Z,21.50
2024-05-09T04:19:10.980Z,21.44
2024-05-09T04:20:28.800Z,21.56
2024-05-09T04:21:43.941Z,23.44
2024-05-09T04:22:51.505Z,27.44
2024-05-09T04:23:58.952Z,30.75
2024-05-09T04:25:06.314Z,32.88
2024-05-09T04:26:13.721Z,34.06
2024-05-09T04:27:21.118Z,34.75
2024-05-09T04:28:28.467Z,34.81
2024-05-09T04:29:35.877Z,34.75
2024-05-09T04:30:43.593Z,34.56
2024-05-09T04:31:51.189Z,34.44
2024-05-09T04:32:58.755Z,34.00
2024-05-09T04:34:06.477Z,31.19
2024-05-09T04:35:13.976Z,29.06
2024-05-09T04:36:21.367Z,27.88
2024-05-09T04:37:28.728Z,27.44
2024-05-09T04:38:36.197Z,27.50
2024-05-09T04:39:43.656Z,29.31
2024-05-09T04:40:51.027Z,31.94
2024-05-09T04:41:58.434Z,33.69
2024-05-09T04:43:06.202Z,34.81
2024-05-09T04:44:13.977Z,35.44
2024-05-09T04:45:21.391Z,35.94
2024-05-09T04:46:28.805Z,36.06
2024-05-09T04:47:36.300Z,35.81
2024-05-09T04:48:43.922Z,35.56
2024-05-09T04:49:51.501Z,35.31
2024-05-09T04:50:59.142Z,34.56
2024-05-09T04:52:06.505Z,33.00
2024-05-09T04:53:13.905Z,32.00
2024-05-09T04:54:30.256Z,31.38
2024-05-09T04:55:43.382Z,31.00
2024-05-09T04:56:50.766Z,31.25
2024-05-09T04:57:58.116Z,32.56
2024-05-09T04:59:05.529Z,34.13
2024-05-09T05:00:14.995Z,35.25
2024-05-09T05:01:29.097Z,35.94
2024-05-09T05:02:36.556Z,36.25
2024-05-09T05:03:44.183Z,36.50
2024-05-09T05:04:51.933Z,36.75
2024-05-09T05:05:59.641Z,37.00
2024-05-09T05:07:07.158Z,37.06
2024-05-09T05:08:15.036Z,36.81
2024-05-09T05:09:22.769Z,36.63
2024-05-09T05:10:35.729Z,36.63
2024-05-09T05:11:44.489Z,36.69
2024-05-09T05:12:51.946Z,36.75
2024-05-09T05:13:59.367Z,36.81
2024-05-09T05:15:06.797Z,36.94
2024-05-09T05:16:14.232Z,37.00
2024-05-09T05:17:21.670Z,37.13
2024-05-09T05:18:29.232Z,37.19
2024-05-09T05:19:37.186Z,37.31
2024-05-09T05:20:44.836Z,37.38
2024-05-09T05:21:52.281Z,37.50
2024-05-09T05:22:59.763Z,37.56
2024-05-09T05:24:07.186Z,37.63
2024-05-09T05:25:14.606Z,37.69
2024-05-09T05:26:21.997Z,37.75
2024-05-09T05:27:29.393Z,37.81
2024-05-09T05:28:36.759Z,37.81
2024-05-09T05:29:44.177Z,37.88
2024-05-09T05:30:51.645Z,37.94
2024-05-09T05:31:59.123Z,37.94
2024-05-09T05:33:07.012Z,38.00
2024-05-09T05:34:14.689Z,38.06
2024-05-09T05:35:22.138Z,38.13
2024-05-09T05:36:29.699Z,38.19
2024-05-09T05:37:37.062Z,38.25
2024-05-09T05:38:44.593Z,38.31
2024-05-09T05:39:52.131Z,38.38
2024-05-09T05:40:59.586Z,38.50
2024-05-09T05:42:07.044Z,38.50
2024-05-09T05:43:14.414Z,38.56
2024-05-09T05:44:21.826Z,38.44
2024-05-09T05:45:29.184Z,38.38
2024-05-09T05:46:36.590Z,38.31
2024-05-09T05:47:44.238Z,38.38
2024-05-09T05:48:51.759Z,38.38
2024-05-09T05:49:59.251Z,38.44
2024-05-09T05:51:06.763Z,38.44
2024-05-09T05:52:14.142Z,38.50
2024-05-09T05:53:21.598Z,38.56
2024-05-09T05:54:28.996Z,38.50
2024-05-09T05:55:36.376Z,38.44
2024-05-09T05:56:43.764Z,38.38
2024-05-09T05:57:51.145Z,38.38
2024-05-09T05:58:58.571Z,38.38
2024-05-09T06:00:09.262Z,38.38
2024-05-09T06:01:17.103Z,38.38
2024-05-09T06:02:24.632Z,38.31
2024-05-09T06:03:32.339Z,38.25
2024-05-09T06:04:39.787Z,38.25
2024-05-09T06:05:47.305Z,38.13
2024-05-09T06:06:54.680Z,38.06
2024-05-09T06:08:02.086Z,38.00
2024-05-09T06:09:09.521Z,37.94
2024-05-09T06:10:21.532Z,37.88
2024-05-09T06:11:33.274Z,37.69
2024-05-09T06:12:40.667Z,37.56
2024-05-09T06:13:48.089Z,37.44
2024-05-09T06:14:55.520Z,37.31
2024-05-09T06:16:02.902Z,37.19
2024-05-09T06:17:10.526Z,37.13
2024-05-09T06:18:18.528Z,37.00
2024-05-09T06:19:26.348Z,36.94
2024-05-09T06:20:36.751Z,36.94
2024-05-09T06:21:45.665Z,36.94
2024-05-09T06:22:53.076Z,36.88
2024-05-09T06:24:01.897Z,36.88
2024-05-09T06:25:10.520Z,37.00
2024-05-09T06:26:17.978Z,37.06
2024-05-09T06:27:25.435Z,37.19
2024-05-09T06:28:32.814Z,37.25
2024-05-09T06:29:40.216Z,37.31
2024-05-09T06:30:47.643Z,37.31
2024-05-09T06:31:57.171Z,37.38
2024-05-09T06:33:07.176Z,37.38
2024-05-09T06:34:15.064Z,37.44
2024-05-09T06:35:22.589Z,37.44
2024-05-09T06:36:29.981Z,37.50
2024-05-09T06:37:37.431Z,37.56
2024-05-09T06:38:44.985Z,37.63
2024-05-09T06:39:52.385Z,37.63
2024-05-09T06:40:59.830Z,37.69
2024-05-09T06:42:07.271Z,37.75
2024-05-09T06:43:16.153Z,37.81
2024-05-09T06:44:25.511Z,37.88
2024-05-09T06:45:32.944Z,37.88
2024-05-09T06:46:40.473Z,37.94
2024-05-09T06:47:48.149Z,38.00
2024-05-09T06:48:55.891Z,38.00
2024-05-09T06:50:04.885Z,38.06
2024-05-09T06:51:13.834Z,38.13
2024-05-09T06:52:21.226Z,38.19
2024-05-09T06:53:28.814Z,38.25
2024-05-09T06:54:36.234Z,38.31
2024-05-09T06:55:43.627Z,38.38
2024-05-09T06:56:51.081Z,38.38
2024-05-09T06:57:58.498Z,38.44
2024-05-09T06:59:05.882Z,38.44
2024-05-09T07:00:19.178Z,38.44
2024-05-09T07:01:34.816Z,38.44
2024-05-09T07:02:42.453Z,38.38
2024-05-09T07:03:50.036Z,38.31
2024-05-09T07:04:57.675Z,38.25
2024-05-09T07:06:05.348Z,38.19
2024-05-09T07:07:12.824Z,38.13
2024-05-09T07:08:20.287Z,38.13
2024-05-09T07:09:27.695Z,38.06
2024-05-09T07:10:36.246Z,37.94
2024-05-09T07:11:44.467Z,37.94
2024-05-09T07:12:51.906Z,37.88
2024-05-09T07:13:59.389Z,37.81
2024-05-09T07:15:06.767Z,37.75
2024-05-09T07:16:14.140Z,37.69
2024-05-09T07:17:21.701Z,37.63
2024-05-09T07:18:29.311Z,37.56
2024-05-09T07:19:36.993Z,37.56
2024-05-09T07:20:44.601Z,37.63
2024-05-09T07:21:51.985Z,37.69
2024-05-09T07:22:59.437Z,37.81
2024-05-09T07:24:06.807Z,37.81
2024-05-09T07:25:14.178Z,37.88
2024-05-09T07:26:21.590Z,37.94
2024-05-09T07:27:28.994Z,37.94
2024-05-09T07:28:36.415Z,37.94
2024-05-09T07:29:43.811Z,38.00
2024-05-09T07:30:51.234Z,38.00
2024-05-09T07:31:58.610Z,38.06
2024-05-09T07:33:06.200Z,38.13
2024-05-09T07:34:13.857Z,38.13
2024-05-09T07:35:21.378Z,38.19
2024-05-09T07:36:28.821Z,38.25
2024-05-09T07:37:36.181Z,38.25
2024-05-09T07:38:43.641Z,38.31
2024-05-09T07:39:51.020Z,38.38
2024-05-09T07:40:58.424Z,38.38
2024-05-09T07:42:05.914Z,38.44
2024-05-09T07:43:13.479Z,38.50
2024-05-09T07:44:20.916Z,38.50
2024-05-09T07:45:45.012Z,38.44
2024-05-09T07:48:13.986Z,38.31
2024-05-09T07:53:21.650Z,38.25
2024-05-09T07:53:38.844Z,38.19
2024-05-09T07:54:48.664Z,38.13
2024-05-09T07:55:56.813Z,38.06
2024-05-09T07:57:04.491Z,38.00
2024-05-09T07:58:12.031Z,37.88
2024-05-09T07:59:19.519Z,37.81
2024-05-09T08:00:31.133Z,37.75
2024-05-09T08:01:39.604Z,37.69
2024-05-09T08:02:47.123Z,37.63
2024-05-09T08:03:54.794Z,37.56
2024-05-09T08:05:02.444Z,37.50
2024-05-09T08:06:09.898Z,37.44
2024-05-09T08:07:17.319Z,37.31
2024-05-09T08:08:24.762Z,37.25
2024-05-09T08:09:32.198Z,37.19
2024-05-09T08:10:39.629Z,37.13
2024-05-09T08:11:47.023Z,37.06
2024-05-09T08:12:54.522Z,37.00
2024-05-09T08:14:01.935Z,36.94
2024-05-09T08:15:09.314Z,37.00
2024-05-09T08:16:16.772Z,37.06
2024-05-09T08:17:24.363Z,37.13
2024-05-09T08:18:32.138Z,37.19
2024-05-09T08:19:39.774Z,37.19
2024-05-09T08:20:47.200Z,37.19
2024-05-09T08:21:54.619Z,37.25
2024-05-09T08:23:02.182Z,37.31
2024-05-09T08:24:09.581Z,37.31
2024-05-09T08:25:17.048Z,37.38
2024-05-09T08:26:24.519Z,37.38
2024-05-09T08:27:31.913Z,37.44
2024-05-09T08:28:39.356Z,37.50
2024-05-09T08:29:46.811Z,37.56
2024-05-09T08:30:54.335Z,37.56
2024-05-09T08:32:02.026Z,37.63
2024-05-09T08:33:09.580Z,37.69
2024-05-09T08:34:17.149Z,37.69
2024-05-09T08:35:24.584Z,37.69
2024-05-09T08:36:31.974Z,37.69
2024-05-09T08:37:40.681Z,37.69
2024-05-09T08:38:48.340Z,37.63
2024-05-09T08:39:55.816Z,37.56
2024-05-09T08:41:03.299Z,37.50
2024-05-09T08:42:10.666Z,37.44
2024-05-09T08:43:18.042Z,37.38
2024-05-09T08:44:25.437Z,37.31
2024-05-09T08:45:32.824Z,37.25
2024-05-09T08:46:40.280Z,37.19
2024-05-09T08:47:47.731Z,37.13
2024-05-09T08:48:55.265Z,37.06
2024-05-09T08:50:03.158Z,37.06
2024-05-09T08:51:11.380Z,37.00
2024-05-09T08:52:18.848Z,36.94
2024-05-09T08:53:26.253Z,36.88
2024-05-09T08:54:33.814Z,36.81
2024-05-09T08:55:43.420Z,36.75
2024-05-09T08:56:51.723Z,36.81
2024-05-09T08:57:59.207Z,36.88
2024-05-09T08:59:06.627Z,36.94
2024-05-09T09:00:18.129Z,37.00
2024-05-09T09:01:32.983Z,37.00
2024-05-09T09:02:40.571Z,37.06
2024-05-09T09:03:48.272Z,37.13
2024-05-09T09:04:55.863Z,37.13
2024-05-09T09:06:03.257Z,37.19
2024-05-09T09:07:10.633Z,37.19
2024-05-09T09:08:18.025Z,37.25
2024-05-09T09:09:25.423Z,37.31
2024-05-09T09:10:33.467Z,37.38
2024-05-09T09:11:41.077Z,37.44
2024-05-09T09:12:48.516Z,37.50
2024-05-09T09:13:55.904Z,37.56
2024-05-09T09:15:03.303Z,37.63
2024-05-09T09:16:10.804Z,37.69
2024-05-09T09:17:18.352Z,37.75
2024-05-09T09:18:25.913Z,37.75
2024-05-09T09:19:33.416Z,37.81
2024-05-09T09:20:40.955Z,37.81
2024-05-09T09:21:48.505Z,37.81
2024-05-09T09:22:55.953Z,37.81
2024-05-09T09:24:03.415Z,37.75
2024-05-09T09:25:11.010Z,37.75
2024-05-09T09:26:18.445Z,37.69
2024-05-09T09:27:25.810Z,37.63
2024-05-09T09:28:33.184Z,37.56
2024-05-09T09:29:40.637Z,37.56
2024-05-09T09:30:48.056Z,37.50
2024-05-09T09:31:55.453Z,37.44
2024-05-09T09:33:02.937Z,37.38
2024-05-09T09:34:10.629Z,37.38
2024-05-09T09:35:18.112Z,37.31
2024-05-09T09:36:25.474Z,37.25
2024-05-09T09:37:32.924Z,37.25
2024-05-09T09:38:40.356Z,37.19
2024-05-09T09:39:49.166Z,37.13
2024-05-09T09:40:56.841Z,37.06
2024-05-09T09:42:04.236Z,37.13
2024-05-09T09:43:11.723Z,37.19
2024-05-09T09:44:19.104Z,37.19
2024-05-09T09:45:26.449Z,37.25
2024-05-09T09:46:33.940Z,37.31
2024-05-09T09:47:41.447Z,37.38
2024-05-09T09:48:49.280Z,37.38
2024-05-09T09:49:56.846Z,37.44
2024-05-09T09:51:04.229Z,37.50
2024-05-09T09:52:11.681Z,37.50
2024-05-09T09:53:19.092Z,37.56
2024-05-09T09:54:26.498Z,37.63
2024-05-09T09:55:33.897Z,37.69
2024-05-09T09:56:41.268Z,37.75
2024-05-09T09:57:48.689Z,37.81
2024-05-09T09:58:56.066Z,37.88
2024-05-09T10:00:07.418Z,37.94
2024-05-09T10:01:19.126Z,38.00
2024-05-09T10:02:26.707Z,38.00
2024-05-09T10:03:34.411Z,38.06
2024-05-09T10:04:41.930Z,38.06
2024-05-09T10:05:49.524Z,38.00
2024-05-09T10:06:57.048Z,38.00
2024-05-09T10:08:04.481Z,37.94
2024-05-09T10:09:11.884Z,37.94
2024-05-09T10:10:26.958Z,37.88
2024-05-09T10:11:45.199Z,37.81
2024-05-09T10:12:56.274Z,37.75
2024-05-09T10:14:03.694Z,37.69
2024-05-09T10:15:11.071Z,37.63
2024-05-09T10:16:18.521Z,37.56
2024-05-09T10:17:26.026Z,37.56
2024-05-09T10:19:40.980Z,37.44
2024-05-09T10:20:48.445Z,37.38
2024-05-09T10:21:56.082Z,37.31
2024-05-09T10:23:03.480Z,37.25
2024-05-09T10:24:10.882Z,37.25
2024-05-09T10:25:18.384Z,37.25
2024-05-09T10:26:25.886Z,37.38
2024-05-09T10:27:33.289Z,37.44
2024-05-09T10:28:40.665Z,37.50
2024-05-09T10:29:48.049Z,37.56
2024-05-09T10:30:55.479Z,37.56
2024-05-09T10:32:02.896Z,37.63
2024-05-09T10:33:10.362Z,37.69
2024-05-09T10:34:17.934Z,37.69
2024-05-09T10:35:25.419Z,37.75
2024-05-09T10:36:32.819Z,37.75
2024-05-09T10:37:40.219Z,37.81
2024-05-09T10:38:47.615Z,37.75
2024-05-09T10:39:55.065Z,37.69
2024-05-09T10:41:02.491Z,37.69
2024-05-09T10:42:10.228Z,37.69
2024-05-09T10:43:17.742Z,37.75
2024-05-09T10:44:25.148Z,37.75
2024-05-09T10:45:32.720Z,37.75
2024-05-09T10:46:40.144Z,37.75
2024-05-09T10:47:47.767Z,37.69
2024-05-09T10:48:55.332Z,37.69
2024-05-09T10:50:04.850Z,37.63
2024-05-09T10:51:13.385Z,37.50
2024-05-09T10:52:20.788Z,37.44
2024-05-09T10:53:28.177Z,37.31
2024-05-09T10:54:35.659Z,37.19
2024-05-09T10:55:43.028Z,37.06
2024-05-09T10:56:50.455Z,36.88
2024-05-09T10:57:57.972Z,36.75
2024-05-09T10:59:05.421Z,36.63
2024-05-09T11:00:19.440Z,36.50
2024-05-09T11:01:34.922Z,36.38
2024-05-09T11:02:42.605Z,36.38
2024-05-09T11:03:50.431Z,36.31
2024-05-09T11:04:58.099Z,36.25
2024-05-09T11:06:05.680Z,36.19
2024-05-09T11:07:13.211Z,36.13
2024-05-09T11:08:20.652Z,36.00
2024-05-09T11:09:28.145Z,35.94
2024-05-09T11:10:35.630Z,35.88
2024-05-09T11:11:44.215Z,35.81
2024-05-09T11:12:51.709Z,35.75
2024-05-09T11:13:59.125Z,35.63
2024-05-09T11:15:06.503Z,35.56
2024-05-09T11:16:14.026Z,35.50
2024-05-09T11:17:21.563Z,35.44
2024-05-09T11:18:31.920Z,35.31
2024-05-09T11:19:42.587Z,35.25
2024-05-09T11:20:50.079Z,35.13
2024-05-09T11:21:57.491Z,35.06
2024-05-09T11:23:04.920Z,34.94
2024-05-09T11:24:12.292Z,34.88
2024-05-09T11:25:19.849Z,34.75
2024-05-09T11:26:27.278Z,34.63
2024-05-09T11:27:34.690Z,34.56
2024-05-09T11:28:42.074Z,34.44
2024-05-09T11:29:49.447Z,34.38
2024-05-09T11:30:57.008Z,34.25
2024-05-09T11:32:04.488Z,34.13
2024-05-09T11:33:11.945Z,34.06
2024-05-09T11:34:19.395Z,33.94
2024-05-09T11:35:26.790Z,33.88
2024-05-09T11:36:34.243Z,33.75
2024-05-09T11:37:41.629Z,33.63
2024-05-09T11:38:49.070Z,33.56
2024-05-09T11:39:56.454Z,33.44
2024-05-09T11:41:03.880Z,33.38
2024-05-09T11:42:11.272Z,33.25
2024-05-09T11:43:18.708Z,33.19
2024-05-09T11:44:26.179Z,33.06
2024-05-09T11:45:33.682Z,33.00
2024-05-09T11:46:41.133Z,32.88
2024-05-09T11:47:48.684Z,32.81
2024-05-09T11:48:56.345Z,32.69
2024-05-09T11:50:07.705Z,32.63
2024-05-09T11:51:15.362Z,32.50
2024-05-09T11:52:22.806Z,32.44
2024-05-09T11:53:30.172Z,32.31
2024-05-09T11:54:37.575Z,32.25
2024-05-09T11:55:44.972Z,32.19
2024-05-09T11:56:52.354Z,32.06
2024-05-09T11:57:59.915Z,32.00
2024-05-09T11:59:07.402Z,31.88
2024-05-09T12:00:18.277Z,31.81
2024-05-09T12:01:32.674Z,31.75
2024-05-09T12:02:40.173Z,31.63
2024-05-09T12:03:47.743Z,31.56
2024-05-09T12:04:55.390Z,31.50
2024-05-09T12:06:03.024Z,31.38
2024-05-09T12:07:12.896Z,31.31
2024-05-09T12:08:20.549Z,31.25
2024-05-09T12:09:27.991Z,31.19
2024-05-09T12:10:36.703Z,31.13
2024-05-09T12:11:44.561Z,31.06
2024-05-09T12:12:52.036Z,30.94
2024-05-09T12:13:59.473Z,30.88
2024-05-09T12:15:06.834Z,30.81
2024-05-09T12:16:14.359Z,30.75
2024-05-09T12:17:21.978Z,30.69
2024-05-09T12:18:29.547Z,30.63
2024-05-09T12:19:37.242Z,30.56
2024-05-09T12:20:44.694Z,30.44
2024-05-09T12:21:52.120Z,30.38
2024-05-09T12:22:59.497Z,30.31
2024-05-09T12:24:06.893Z,30.31
2024-05-09T12:25:14.412Z,30.19
2024-05-09T12:26:21.825Z,30.13
2024-05-09T12:27:29.241Z,30.06
2024-05-09T12:28:36.636Z,30.00
2024-05-09T12:29:43.988Z,29.94
2024-05-09T12:30:51.418Z,29.88
2024-05-09T12:31:58.880Z,29.81
2024-05-09T12:33:06.528Z,29.75
2024-05-09T12:34:14.215Z,29.69
2024-05-09T12:35:21.699Z,29.63
2024-05-09T12:36:29.168Z,29.56
2024-05-09T12:37:36.580Z,29.50
2024-05-09T12:38:44.028Z,29.44
2024-05-09T12:39:51.444Z,29.38
2024-05-09T12:40:58.980Z,29.31
2024-05-09T12:42:06.483Z,29.25
2024-05-09T12:43:13.903Z,29.19
2024-05-09T12:44:21.340Z,29.13
2024-05-09T12:45:28.733Z,29.13
2024-05-09T12:46:36.225Z,29.06
2024-05-09T12:47:43.713Z,29.00
2024-05-09T12:48:51.299Z,28.94
2024-05-09T12:49:58.787Z,28.88
2024-05-09T12:51:06.230Z,28.81
2024-05-09T12:52:13.901Z,28.81
2024-05-09T12:53:21.420Z,28.75
2024-05-09T12:54:28.874Z,28.69
2024-05-09T12:55:44.101Z,28.63
2024-05-09T12:56:56.462Z,28.56
2024-05-09T12:58:03.965Z,28.50
2024-05-09T12:59:11.418Z,28.50
2024-05-09T13:00:24.043Z,28.44
2024-05-09T13:01:38.508Z,28.38
2024-05-09T13:02:45.954Z,28.31
2024-05-09T13:03:53.560Z,28.25
2024-05-09T13:05:01.288Z,28.25
2024-05-09T13:06:08.828Z,28.19
2024-05-09T13:07:16.342Z,28.13
2024-05-09T13:08:23.982Z,28.06
2024-05-09T13:09:31.433Z,28.06
2024-05-09T13:10:38.954Z,28.00
2024-05-09T13:11:46.452Z,27.94
2024-05-09T13:12:53.859Z,27.94
2024-05-09T13:14:01.321Z,27.88
2024-05-09T13:15:08.827Z,27.88
2024-05-09T13:16:16.239Z,27.81
2024-05-09T13:17:23.861Z,27.81
2024-05-09T13:18:31.434Z,27.75
2024-05-09T13:19:38.869Z,27.69
2024-05-09T13:20:46.242Z,27.69
2024-05-09T13:21:53.774Z,27.63
2024-05-09T13:23:01.331Z,27.63
2024-05-09T13:24:08.745Z,27.56
2024-05-09T13:25:16.140Z,27.50
2024-05-09T13:26:23.522Z,27.50
2024-05-09T13:27:30.961Z,27.44
2024-05-09T13:28:38.396Z,27.44
2024-05-09T13:29:45.772Z,27.38
2024-05-09T13:30:53.296Z,27.31
2024-05-09T13:32:00.798Z,27.31
2024-05-09T13:33:08.439Z,27.25
2024-05-09T13:34:16.110Z,27.25
2024-05-09T13:35:23.591Z,27.19
2024-05-09T13:36:31.036Z,27.19
2024-05-09T13:37:38.444Z,27.13
2024-05-09T13:38:45.838Z,27.06
2024-05-09T13:39:53.268Z,27.06
2024-05-09T13:41:00.714Z,27.00
2024-05-09T13:42:08.095Z,27.00
2024-05-09T13:43:15.495Z,26.94
2024-05-09T13:44:22.948Z,26.94
2024-05-09T13:45:30.503Z,26.88
2024-05-09T13:46:38.037Z,26.88
2024-05-09T13:47:45.572Z,26.81
2024-05-09T13:48:53.162Z,26.81
2024-05-09T13:50:00.655Z,26.75
2024-05-09T13:51:08.186Z,26.75
2024-05-09T13:52:15.675Z,26.69
2024-05-09T13:53:23.120Z,26.69
2024-05-09T13:54:30.524Z,26.69
2024-05-09T13:55:37.926Z,26.63
2024-05-09T13:56:45.337Z,26.63
2024-05-09T13:57:52.751Z,26.63
2024-05-09T13:59:00.245Z,26.56
2024-05-09T14:00:18.198Z,26.56
2024-05-09T14:01:34.412Z,26.50
2024-05-09T14:02:42.014Z,26.50
2024-05-09T14:03:49.802Z,26.44
2024-05-09T14:04:57.525Z,26.44
2024-05-09T14:06:04.978Z,26.38
2024-05-09T14:07:12.387Z,26.38
2024-05-09T14:08:20.501Z,26.38
2024-05-09T14:09:27.972Z,26.31
2024-05-09T14:10:35.420Z,26.31
2024-05-09T14:11:42.912Z,26.25
2024-05-09T14:12:50.323Z,26.25
2024-05-09T14:13:57.747Z,26.25
2024-05-09T14:15:05.096Z,26.19
2024-05-09T14:16:12.599Z,26.19
2024-05-09T14:17:20.056Z,26.13
2024-05-09T14:18:27.494Z,26.13
2024-05-09T14:19:34.890Z,26.13
2024-05-09T14:20:42.591Z,26.06
2024-05-09T14:21:50.172Z,26.06
2024-05-09T14:22:57.559Z,26.00
2024-05-09T14:24:04.939Z,26.00
2024-05-09T14:25:12.641Z,26.00
2024-05-09T14:26:20.190Z,25.94
2024-05-09T14:27:27.573Z,25.94
2024-05-09T14:28:34.995Z,25.88
2024-05-09T14:29:42.422Z,25.88
2024-05-09T14:30:49.891Z,25.88
2024-05-09T14:31:57.373Z,25.81
2024-05-09T14:33:05.203Z,25.81
2024-05-09T14:34:13.216Z,25.81
2024-05-09T14:35:20.678Z,25.75
2024-05-09T14:36:28.146Z,25.75
2024-05-09T14:37:38.610Z,25.69
2024-05-09T14:38:46.993Z,25.69
2024-05-09T14:39:54.412Z,25.69